createdAt,value
2022-10-01T00:00:20.943Z,9.95
2022-10-01T00:05:44.741Z,9.83
2022-10-01T00:10:49.415Z,9.70
2022-10-01T00:15:53.328Z,9.58
2022-10-01T00:20:56.646Z,9.57
2022-10-01T00:26:11.287Z,9.68
2022-10-01T00:31:16.788Z,9.61
2022-10-01T00:36:20.227Z,9.58
2022-10-01T00:41:25.536Z,9.38
2022-10-01T00:46:34.938Z,9.48
2022-10-01T00:51:41.350Z,9.34
2022-10-01T00:56:47.324Z,9.56
2022-10-01T01:01:50.976Z,9.78
2022-10-01T01:06:58.402Z,9.89
2022-10-01T01:12:12.708Z,9.83
2022-10-01T01:17:25.159Z,9.68
2022-10-01T01:22:34.678Z,9.85
2022-10-01T01:27:43.875Z,9.56
2022-10-01T01:32:55.313Z,9.67
2022-10-01T01:38:04.099Z,9.71
2022-10-01T01:43:12.297Z,9.34
2022-10-01T01:48:17.012Z,9.51
2022-10-01T01:53:20.678Z,9.33
2022-10-01T01:58:26.343Z,9.18
2022-10-01T02:03:34.408Z,9.17
2022-10-01T02:08:43.626Z,9.10
2022-10-01T02:13:56.907Z,9.19
2022-10-01T02:19:06.169Z,9.02
2022-10-01T02:24:19.969Z,8.94
2022-10-01T02:29:24.957Z,9.00
2022-10-01T02:34:31.483Z,9.13
2022-10-01T02:39:37.527Z,8.93
2022-10-01T02:44:45.099Z,9.16
2022-10-01T02:49:50.842Z,9.32
2022-10-01T02:54:58.236Z,9.41
2022-10-01T03:00:04.785Z,9.24
2022-10-01T03:05:10.439Z,9.05
2022-10-01T03:10:16.119Z,9.00
2022-10-01T03:15:20.678Z,9.14
2022-10-01T03:20:26.618Z,8.94
2022-10-01T03:25:30.466Z,9.01
2022-10-01T03:30:35.691Z,8.78
2022-10-01T03:35:40.411Z,8.68
2022-10-01T03:40:43.994Z,8.55
2022-10-01T03:45:47.601Z,8.48
2022-10-01T03:50:56.039Z,8.37
2022-10-01T03:56:00.442Z,8.20
2022-10-01T04:01:04.076Z,8.14
2022-10-01T04:06:09.096Z,8.10
2022-10-01T04:11:13.221Z,8.09
2022-10-01T04:21:42.251Z,8.11
2022-10-01T04:26:45.678Z,8.06
2022-10-01T04:31:49.080Z,8.25
2022-10-01T04:36:53.755Z,8.14
2022-10-01T04:41:57.040Z,8.18
2022-10-01T04:47:00.398Z,8.02
2022-10-01T04:52:06.067Z,8.01
2022-10-01T04:57:09.436Z,8.02
2022-10-01T05:02:13.555Z,8.07
2022-10-01T05:07:19.528Z,8.31
2022-10-01T05:12:25.528Z,8.51
2022-10-01T05:17:29.055Z,8.67
2022-10-01T05:22:34.360Z,8.76
2022-10-01T05:27:40.531Z,8.69
2022-10-01T05:32:43.922Z,8.80
2022-10-01T05:37:48.673Z,8.63
2022-10-01T05:42:52.044Z,8.69
2022-10-01T05:47:59.249Z,8.94
2022-10-01T05:53:16.175Z,8.70
2022-10-01T05:58:19.601Z,8.71
2022-10-01T06:03:23.299Z,8.54
2022-10-01T06:08:28.759Z,8.65
2022-10-01T06:13:32.198Z,8.67
2022-10-01T06:18:35.504Z,8.84
2022-10-01T06:23:40.204Z,9.37
2022-10-01T06:28:43.579Z,9.59
2022-10-01T06:33:47.031Z,9.41
2022-10-01T06:38:52.071Z,9.70
2022-10-01T06:43:55.509Z,9.59
2022-10-01T06:48:59.547Z,9.58
2022-10-01T06:54:04.770Z,9.73
2022-10-01T06:59:08.491Z,9.70
2022-10-01T07:04:13.152Z,9.87
2022-10-01T07:09:18.039Z,10.05
2022-10-01T07:14:21.786Z,10.28
2022-10-01T07:19:25.295Z,10.28
2022-10-01T07:24:30.134Z,10.43
2022-10-01T07:29:33.583Z,10.50
2022-10-01T07:34:40.259Z,10.89
2022-10-01T07:39:44.979Z,11.31
2022-10-01T07:44:48.516Z,11.20
2022-10-01T07:49:51.808Z,11.31
2022-10-01T07:54:56.537Z,11.67
2022-10-01T08:00:00.547Z,11.54
2022-10-01T08:05:19.083Z,11.56
2022-10-01T08:10:24.366Z,11.59
2022-10-01T08:15:28.870Z,11.82
2022-10-01T08:20:32.327Z,12.02
2022-10-01T08:25:37.834Z,12.19
2022-10-01T08:30:43.050Z,12.74
2022-10-01T08:35:46.664Z,12.37
2022-10-01T08:40:52.479Z,12.21
2022-10-01T08:46:08.598Z,12.33
2022-10-01T08:51:29.429Z,12.48
2022-10-01T08:56:40.764Z,12.56
2022-10-01T09:01:46.792Z,12.45
2022-10-01T09:07:04.835Z,12.62
2022-10-01T09:12:29.441Z,12.81
2022-10-01T09:17:54.333Z,12.71
2022-10-01T09:23:14.907Z,13.12
2022-10-01T09:28:22.192Z,13.05
2022-10-01T09:33:32.142Z,13.13
2022-10-01T09:38:37.912Z,12.96
2022-10-01T09:43:44.389Z,12.50
2022-10-01T09:48:57.714Z,12.52
2022-10-01T09:54:05.938Z,12.60
2022-10-01T09:59:18.104Z,12.69
2022-10-01T10:04:23.877Z,12.75
2022-10-01T10:09:30.242Z,12.67
2022-10-01T10:14:37.081Z,12.41
2022-10-01T10:19:41.528Z,12.57
2022-10-01T10:24:44.962Z,12.63
2022-10-01T10:29:49.845Z,12.43
2022-10-01T10:35:02.079Z,12.65
2022-10-01T10:40:09.118Z,12.48
2022-10-01T10:45:21.213Z,12.19
2022-10-01T10:50:33.414Z,12.36
2022-10-01T10:55:39.177Z,12.62
2022-10-01T11:00:50.903Z,12.85
2022-10-01T11:05:57.323Z,13.34
2022-10-01T11:11:13.111Z,14.13
2022-10-01T11:16:36.530Z,14.69
2022-10-01T11:21:53.087Z,14.74
2022-10-01T11:27:01.124Z,14.87
2022-10-01T11:32:19.728Z,14.99
2022-10-01T11:37:41.632Z,14.87
2022-10-01T11:42:47.680Z,14.36
2022-10-01T11:47:57.379Z,14.03
2022-10-01T11:53:05.787Z,13.82
2022-10-01T11:58:35.650Z,13.82
2022-10-01T12:03:46.923Z,13.48
2022-10-01T12:08:56.934Z,13.42
2022-10-01T12:14:12.658Z,13.46
2022-10-01T12:19:25.049Z,13.73
2022-10-01T12:24:31.969Z,13.65
2022-10-01T12:29:46.278Z,13.50
2022-10-01T12:35:04.589Z,13.84
2022-10-01T12:40:22.812Z,14.00
2022-10-01T12:45:35.438Z,13.82
2022-10-01T12:51:08.421Z,13.81
2022-10-01T12:56:17.961Z,13.84
2022-10-01T13:01:37.300Z,13.74
2022-10-01T13:06:55.436Z,13.55
2022-10-01T13:12:20.633Z,13.41
2022-10-01T13:17:34.882Z,13.51
2022-10-01T13:22:48.786Z,13.52
2022-10-01T13:27:59.618Z,13.56
2022-10-01T13:33:03.413Z,13.38
2022-10-01T13:38:17.263Z,13.38
2022-10-01T13:43:24.391Z,13.35
2022-10-01T13:48:34.768Z,13.52
2022-10-01T13:53:50.101Z,13.51
2022-10-01T13:58:53.535Z,13.63
2022-10-01T14:04:05.312Z,13.69
2022-10-01T14:09:16.695Z,13.94
2022-10-01T14:14:41.377Z,13.99
2022-10-01T14:19:46.990Z,13.76
2022-10-01T14:25:20.985Z,14.06
2022-10-01T14:30:30.686Z,13.94
2022-10-01T14:35:39.452Z,13.90
2022-10-01T14:40:46.908Z,13.86
2022-10-01T14:45:53.104Z,13.90
2022-10-01T14:50:58.540Z,13.71
2022-10-01T14:56:08.224Z,13.72
2022-10-01T15:01:18.987Z,13.84
2022-10-01T15:06:26.218Z,13.84
2022-10-01T15:11:32.718Z,13.80
2022-10-01T15:16:37.176Z,13.56
2022-10-01T15:21:46.488Z,13.56
2022-10-01T15:26:52.669Z,13.41
2022-10-01T15:32:00.191Z,13.38
2022-10-01T15:37:04.934Z,13.19
2022-10-01T15:42:20.567Z,13.02
2022-10-01T15:47:33.080Z,12.90
2022-10-01T15:52:52.233Z,12.88
2022-10-01T15:57:59.487Z,12.82
2022-10-01T16:03:04.035Z,12.76
2022-10-01T16:08:07.477Z,12.65
2022-10-01T16:13:39.380Z,12.53
2022-10-01T16:18:43.621Z,12.33
2022-10-01T16:23:49.613Z,12.31
2022-10-01T16:28:57.604Z,12.28
2022-10-01T16:34:01.173Z,12.21
2022-10-01T16:39:06.682Z,12.22
2022-10-01T16:44:14.179Z,12.03
2022-10-01T16:49:18.415Z,12.01
2022-10-01T16:54:24.453Z,12.03
2022-10-01T16:59:29.127Z,12.25
2022-10-01T17:04:34.055Z,12.12
2022-10-01T17:09:37.611Z,12.17
2022-10-01T17:14:42.274Z,12.17
2022-10-01T17:19:45.568Z,11.99
2022-10-01T17:24:49.276Z,12.17
2022-10-01T17:29:54.352Z,11.97
2022-10-01T17:34:57.670Z,12.06
2022-10-01T17:40:01.355Z,11.83
2022-10-01T17:45:09.316Z,11.58
2022-10-01T17:50:13.243Z,11.63
2022-10-01T17:55:17.277Z,11.66
2022-10-01T18:00:22.048Z,11.71
2022-10-01T18:05:26.722Z,11.66
2022-10-01T18:10:30.176Z,11.69
2022-10-01T18:15:34.908Z,11.75
2022-10-01T18:20:39.547Z,11.37
2022-10-01T18:25:42.985Z,10.86
2022-10-01T18:30:48.560Z,10.67
2022-10-01T18:35:58.628Z,10.37
2022-10-01T18:41:10.133Z,9.99
2022-10-01T18:46:28.111Z,9.99
2022-10-01T18:51:51.070Z,9.85
2022-10-01T18:57:06.448Z,9.75
2022-10-01T19:02:32.625Z,9.73
2022-10-01T19:07:48.580Z,9.54
2022-10-01T19:13:16.959Z,9.65
2022-10-01T19:18:38.300Z,9.54
2022-10-01T19:24:16.360Z,9.60
2022-10-01T19:29:36.482Z,9.56
2022-10-01T19:34:45.536Z,9.50
2022-10-01T19:39:52.873Z,9.37
2022-10-01T19:45:01.304Z,9.40
2022-10-01T19:50:19.864Z,9.30
2022-10-01T19:55:24.879Z,9.24
2022-10-01T20:00:29.808Z,9.22
2022-10-01T20:05:45.001Z,8.86
2022-10-01T20:10:56.511Z,8.86
2022-10-01T20:16:09.754Z,8.80
2022-10-01T20:21:31.599Z,8.71
2022-10-01T20:26:40.719Z,8.63
2022-10-01T20:31:52.564Z,8.76
2022-10-01T20:37:09.237Z,8.62
2022-10-01T20:42:19.188Z,8.68
2022-10-01T20:47:24.781Z,8.66
2022-10-01T20:52:40.713Z,8.51
2022-10-01T20:57:50.325Z,8.45
2022-10-01T21:03:02.047Z,8.50
2022-10-01T21:08:17.302Z,8.56
2022-10-01T21:13:30.474Z,8.50
2022-10-01T21:18:41.659Z,8.64
2022-10-01T21:23:59.725Z,8.52
2022-10-01T21:29:22.164Z,8.69
2022-10-01T21:34:37.627Z,8.65
2022-10-01T21:39:54.377Z,8.55
2022-10-01T21:45:30.594Z,8.72
2022-10-01T21:50:50.224Z,8.78
2022-10-01T21:56:13.485Z,8.85
2022-10-01T22:01:27.433Z,8.82
2022-10-01T22:06:36.500Z,8.89
2022-10-01T22:11:48.377Z,8.76
2022-10-01T22:16:56.714Z,8.56
2022-10-01T22:22:06.112Z,8.64
2022-10-01T22:27:17.719Z,8.64
2022-10-01T22:32:25.470Z,8.53
2022-10-01T22:37:34.829Z,8.69
2022-10-01T22:42:48.651Z,8.52
2022-10-01T22:48:05.185Z,8.63
2022-10-01T22:53:21.896Z,8.60
2022-10-01T22:58:37.784Z,8.62
2022-10-01T23:04:00.618Z,8.61
2022-10-01T23:09:12.651Z,8.66
2022-10-01T23:14:36.256Z,8.76
2022-10-01T23:19:48.861Z,8.80
2022-10-01T23:25:14.884Z,8.76
2022-10-01T23:30:21.566Z,8.83
2022-10-01T23:35:37.435Z,8.83
2022-10-01T23:40:43.854Z,8.83
2022-10-01T23:45:55.267Z,8.85
2022-10-01T23:51:03.338Z,8.82
2022-10-01T23:56:29.308Z,8.92
